Flight Track Log - Related Links

Times and Time Zones

All times are in EDT time to prevent confusion due to time zone crossing. See the N4318M flight status page for this flight to view local times or setup timezone preferences in your user account.

Time Position Orientation Groundspeed Altitude Reporting Facility
EDT Latitude Longitude Course Direction KTS MPH feet Rate Location/Type
Fri 07:34:51 PM 36.5136 -121.2511 137° Southeast 170 196 11,300  Level Los Angeles Center
Fri 07:35:54 PM 36.4697 -121.2058 140° Southeast 170 196 11,300 48 Level Los Angeles Center
Fri 07:36:56 PM 36.4375 -121.1628 133° Southeast 169 194 11,400 48 Climbing Los Angeles Center
Fri 07:37:58 PM 36.4028 -121.1192 135° Southeast 174 200 11,400  Level Los Angeles Center
Fri 07:39:00 PM 36.3647 -121.0797 140° Southeast 178 205 11,400 49 Level Los Angeles Center
Fri 07:40:00 PM 36.3370 -120.7680 137° Southeast  Level Estimated
Fri 07:40:00 PM 36.3261 -121.0403 141° Southeast 176 203 11,500  Level Oakland Center
Fri 07:41:02 PM 36.2881 -120.9997 139° Southeast 178 205 11,500  Level Oakland Center
Fri 07:42:03 PM 36.2514 -120.9578 137° Southeast 178 205 11,500  Level Oakland Center
Fri 07:43:05 PM 36.2203 -120.9114 130° Southeast 173 199 11,500  Level Oakland Center
Fri 07:44:06 PM 36.1797 -120.8614 135° Southeast 173 199 11,500 -49 Level Oakland Center
Fri 07:45:08 PM 36.1481 -120.8164 131° Southeast 171 197 11,400  Descending Oakland Center
Fri 07:46:09 PM 36.1194 -120.7700 127° Southeast 170 196 11,500 49 Climbing Oakland Center
Fri 07:47:11 PM 36.0872 -120.7261 132° Southeast 173 199 11,500  Level Oakland Center
Fri 07:48:12 PM 36.0589 -120.6819 128° Southeast 166 191 11,500  Level Oakland Center
Fri 07:49:14 PM 36.0311 -120.6375 128° Southeast 161 185 11,500 -49 Level Oakland Center
Fri 07:50:15 PM 35.9989 -120.5947 133° Southeast 168 193 11,400 -49 Descending Oakland Center
Fri 07:51:17 PM 35.9678 -120.5514 132° Southeast 168 193 11,400  Level Oakland Center
Fri 07:52:18 PM 35.9292 -120.4989 132° Southeast 171 197 11,400  Level Oakland Center
Fri 07:53:20 PM 35.9022 -120.4519 125° Southeast 165 190 11,400  Level Oakland Center
Fri 07:54:21 PM 35.8786 -120.4042 121° Southeast 163 188 11,400 49 Level Oakland Center
Fri 07:55:23 PM 35.8483 -120.3611 131° Southeast 165 190 11,500 48 Climbing Oakland Center
Fri 07:56:25 PM 35.8183 -120.3181 131° Southeast 165 190 11,500  Level Oakland Center
Fri 07:57:26 PM 35.7814 -120.2767 138° Southeast 174 200 11,500  Level Oakland Center
Fri 07:58:28 PM 35.7453 -120.2358 137° Southeast 176 203 11,500  Level Oakland Center
Fri 07:59:29 PM 35.7147 -120.1911 130° Southeast 171 197 11,500  Level Oakland Center
Fri 08:00:31 PM 35.6836 -120.1497 133° Southeast 167 192 11,500  Level Oakland Center
Fri 08:01:32 PM 35.6425 -120.1017 136° Southeast 167 192 11,500  Level Oakland Center
Fri 08:02:34 PM 35.6089 -120.0578 133° Southeast 171 197 11,500  Level Oakland Center
Fri 08:03:36 PM 35.5794 -120.0114 128° Southeast 172 198 11,500 49 Level Oakland Center
Fri 08:04:37 PM 35.5503 -119.9656 128° Southeast 171 197 11,600  Climbing Oakland Center
Fri 08:05:39 PM 35.5206 -119.9175 127° Southeast 173 199 11,500 -49 Descending Oakland Center
Fri 08:06:40 PM 35.4894 -119.8711 129° Southeast 176 203 11,500  Level Oakland Center
Fri 08:07:42 PM 35.4617 -119.8236 126° Southeast 173 199 11,500 49 Level Oakland Center
Fri 08:08:43 PM 35.4331 -119.7778 127° Southeast 171 197 11,600  Climbing Oakland Center
Fri 08:09:45 PM 35.4003 -119.7311 131° Southeast 175 201 11,500 -98 Descending Oakland Center
Fri 08:10:46 PM 35.3583 -119.6764 133° Southeast 182 209 11,400 -75 Descending Oakland Center
Fri 08:11:05 PM 35.3514 -119.6669 132° Southeast 182 209 11,400  Level Los Angeles Center

Login

Don't have an account? Register now (free) for customized features, flight alerts, and more!